Time;durP1;ratioP1;P1;durP2;ratioP2;P2;SDS_P1;SDS_P2;PMS_P1;PMS_P2;Temp;Humidity;BMP_temperature;BMP_pressure;BME280_temperature;BME280_humidity;BME280_pressure;Samples;Min_cycle;Max_cycle;Signal;HPM_P1;HPM_P2
2022/08/15 00:01:00;;;;;;;0.55;0.55;;;21.50;68.80;;;;;;5074328;28;20020;-73
2022/08/15 00:03:29;;;;;;;0.10;0.10;;;21.40;69.70;;;;;;5074341;28;20024;-73
2022/08/15 00:05:58;;;;;;;0.10;0.10;;;21.40;69.60;;;;;;5073985;28;20104;-75
2022/08/15 00:08:26;;;;;;;0.00;0.00;;;21.40;70.10;;;;;;5074242;28;20032;-75
2022/08/15 00:10:55;;;;;;;0.10;0.10;;;21.30;69.90;;;;;;5074393;28;20418;-73
2022/08/15 00:13:25;;;;;;;0.10;0.10;;;21.40;70.10;;;;;;5072920;28;20028;-72
2022/08/15 00:15:54;;;;;;;0.00;0.00;;;21.40;69.90;;;;;;5073970;28;20277;-73
2022/08/15 00:18:22;;;;;;;0.00;0.00;;;21.40;69.90;;;;;;5073843;28;20384;-73
2022/08/15 00:20:48;;;;;;;0.00;0.00;;;21.70;69.40;;;;;;5072819;28;20024;-73
2022/08/15 00:23:19;;;;;;;0.03;0.03;;;21.80;68.60;;;;;;5074040;28;20029;-74
2022/08/15 00:25:46;;;;;;;0.75;0.20;;;21.90;68.10;;;;;;5072657;28;20028;-73
2022/08/15 00:28:13;;;;;;;0.00;0.00;;;21.90;67.80;;;;;;5073814;28;20033;-73
2022/08/15 00:30:41;;;;;;;0.00;0.00;;;21.80;68.50;;;;;;5073906;28;20032;-73
2022/08/15 00:33:07;;;;;;;0.08;0.08;;;21.70;68.90;;;;;;5073770;28;20078;-73
2022/08/15 00:35:36;;;;;;;0.00;0.00;;;21.60;69.60;;;;;;5072375;28;20036;-73
2022/08/15 00:38:16;;;;;;;1.17;0.30;;;21.70;68.90;;;;;;5072331;28;20078;-74
2022/08/15 00:43:53;;;;;;;0.00;0.00;;;21.70;68.50;;;;;;5073596;28;20028;-73
2022/08/15 00:46:20;;;;;;;0.08;0.08;;;21.70;68.30;;;;;;5072047;28;20033;-73
2022/08/15 00:48:46;;;;;;;0.10;0.10;;;21.70;68.50;;;;;;5073386;28;20412;-73
2022/08/15 00:51:15;;;;;;;0.00;0.00;;;21.70;68.50;;;;;;5073393;28;20020;-73
2022/08/15 00:53:45;;;;;;;0.10;0.10;;;21.60;68.50;;;;;;5073530;28;20028;-72
2022/08/15 00:56:13;;;;;;;0.00;0.00;;;21.60;68.80;;;;;;5071955;28;20029;-73
2022/08/15 00:58:41;;;;;;;0.73;0.28;;;21.50;69.20;;;;;;5073126;28;20039;-73
2022/08/15 01:01:10;;;;;;;0.68;0.68;;;21.50;69.00;;;;;;5073106;28;20028;-73
2022/08/15 01:03:47;;;;;;;0.03;0.03;;;21.50;69.20;;;;;;5073204;28;20492;-73
2022/08/15 01:06:13;;;;;;;0.75;0.75;;;21.40;69.50;;;;;;5071633;28;20028;-73
2022/08/15 01:08:42;;;;;;;0.80;0.80;;;21.40;69.60;;;;;;5071707;28;20029;-72
2022/08/15 01:11:36;;;;;;;0.10;0.10;;;21.30;70.00;;;;;;5073075;28;20021;-73
2022/08/15 01:14:06;;;;;;;0.00;0.00;;;21.30;70.20;;;;;;5073029;28;20070;-73
2022/08/15 01:16:34;;;;;;;0.05;0.05;;;21.40;70.00;;;;;;5054802;28;20035;-73
2022/08/15 01:19:01;;;;;;;0.00;0.00;;;21.50;69.60;;;;;;5071492;28;20063;-73
2022/08/15 01:21:38;;;;;;;0.00;0.00;;;21.60;69.20;;;;;;5071579;28;20025;-73
2022/08/15 01:24:24;;;;;;;0.05;0.05;;;21.70;68.80;;;;;;5073063;28;20031;-75
2022/08/15 01:26:51;;;;;;;0.10;0.10;;;21.70;68.50;;;;;;5071261;28;20036;-73
2022/08/15 01:29:18;;;;;;;0.13;0.13;;;21.70;68.80;;;;;;5072644;28;20166;-74
2022/08/15 01:31:47;;;;;;;0.20;0.17;;;21.50;69.20;;;;;;5073007;28;20024;-73
2022/08/15 01:34:12;;;;;;;0.00;0.00;;;21.50;69.50;;;;;;5072704;28;20078;-73
2022/08/15 01:36:38;;;;;;;0.00;0.00;;;21.50;69.40;;;;;;5054337;28;20121;-73
2022/08/15 01:39:27;;;;;;;0.17;0.17;;;21.50;69.40;;;;;;5072465;28;20025;-73
2022/08/15 01:42:12;;;;;;;0.65;0.52;;;21.50;69.60;;;;;;5072499;28;20025;-73
2022/08/15 01:44:44;;;;;;;0.00;0.00;;;21.50;69.60;;;;;;5072504;28;20025;-73
2022/08/15 01:47:40;;;;;;;0.00;0.00;;;21.80;69.10;;;;;;5072010;28;20588;-73
2022/08/15 01:50:12;;;;;;;0.30;0.30;;;21.80;68.50;;;;;;5071089;28;20033;-73
2022/08/15 01:52:42;;;;;;;0.32;0.32;;;21.70;68.50;;;;;;5072463;28;20211;-73
2022/08/15 01:55:09;;;;;;;0.00;0.00;;;21.60;68.80;;;;;;5072186;28;20051;-73
2022/08/15 01:57:35;;;;;;;1.15;0.57;;;21.60;69.30;;;;;;5072078;28;20020;-75
2022/08/15 02:00:04;;;;;;;0.40;0.40;;;21.50;69.50;;;;;;5072205;28;20024;-74
2022/08/15 02:02:30;;;;;;;0.00;0.00;;;21.50;69.20;;;;;;5071038;28;20025;-73
2022/08/15 02:04:56;;;;;;;0.00;0.00;;;21.40;69.70;;;;;;5070865;28;20029;-74
2022/08/15 02:07:25;;;;;;;0.10;0.10;;;21.50;69.60;;;;;;5071975;28;20032;-73
2022/08/15 02:09:52;;;;;;;0.00;0.00;;;21.50;69.80;;;;;;5072105;28;20047;-75
2022/08/15 02:12:24;;;;;;;0.00;0.00;;;21.50;69.50;;;;;;5071588;28;20028;-74
2022/08/15 02:14:49;;;;;;;0.00;0.00;;;21.60;69.20;;;;;;5072054;28;20032;-73
2022/08/15 02:17:16;;;;;;;14.65;0.98;;;21.50;69.40;;;;;;5071780;28;20437;-73
2022/08/15 02:19:46;;;;;;;0.00;0.00;;;21.50;69.60;;;;;;5070953;28;20013;-73
2022/08/15 02:22:14;;;;;;;0.30;0.30;;;21.50;69.60;;;;;;5071925;28;20074;-74
2022/08/15 02:24:39;;;;;;;0.10;0.10;;;21.40;70.00;;;;;;5070773;28;20025;-73
2022/08/15 02:27:07;;;;;;;0.65;0.65;;;21.40;70.00;;;;;;5071722;28;20103;-73
2022/08/15 02:29:33;;;;;;;0.55;0.55;;;21.30;70.30;;;;;;5053951;28;20025;-74
2022/08/15 02:32:05;;;;;;;0.28;0.17;;;21.40;70.50;;;;;;5071824;28;20071;-73
2022/08/15 02:34:32;;;;;;;0.10;0.10;;;21.40;70.20;;;;;;5071942;28;20078;-75
2022/08/15 02:36:58;;;;;;;0.57;0.40;;;21.40;70.10;;;;;;5071558;28;20032;-72
2022/08/15 02:39:24;;;;;;;0.47;0.20;;;21.50;70.10;;;;;;5070581;28;20025;-73
2022/08/15 02:41:51;;;;;;;2.65;1.05;;;21.40;70.20;;;;;;5071875;28;20020;-73
2022/08/15 02:44:21;;;;;;;5.78;1.30;;;21.40;70.30;;;;;;5071778;28;20017;-73
2022/08/15 02:46:49;;;;;;;0.40;0.40;;;21.40;70.70;;;;;;5071481;28;20400;-73
2022/08/15 02:49:19;;;;;;;0.08;0.08;;;21.40;70.70;;;;;;5070207;28;20036;-73
2022/08/15 02:51:46;;;;;;;0.90;0.32;;;21.40;70.80;;;;;;5071771;28;20032;-73
2022/08/15 02:54:15;;;;;;;0.65;0.40;;;21.40;71.00;;;;;;5071692;28;20052;-73
2022/08/15 02:56:41;;;;;;;0.35;0.28;;;21.40;71.40;;;;;;5070082;28;20021;-73
2022/08/15 02:59:07;;;;;;;0.98;0.77;;;21.20;71.50;;;;;;5071542;28;20056;-75
2022/08/15 03:01:38;;;;;;;0.28;0.22;;;21.20;71.90;;;;;;5071487;28;20051;-76
2022/08/15 03:04:14;;;;;;;0.20;0.20;;;21.30;71.90;;;;;;5071642;28;20025;-74
2022/08/15 03:06:43;;;;;;;0.30;0.30;;;21.30;71.90;;;;;;5071439;28;20028;-75
2022/08/15 03:09:10;;;;;;;0.00;0.00;;;21.30;72.10;;;;;;5071461;28;20039;-75
2022/08/15 03:11:38;;;;;;;0.30;0.30;;;21.20;72.30;;;;;;5071481;28;20017;-75
2022/08/15 03:14:11;;;;;;;1.25;0.82;;;21.00;72.90;;;;;;5071435;28;20017;-75
2022/08/15 03:16:40;;;;;;;0.08;0.08;;;21.10;73.10;;;;;;5070187;28;20024;-75
2022/08/15 03:19:08;;;;;;;0.60;0.38;;;21.00;73.10;;;;;;5071354;28;20027;-75
2022/08/15 03:21:35;;;;;;;0.00;0.00;;;21.00;73.30;;;;;;5071486;28;20055;-75
2022/08/15 03:24:02;;;;;;;0.55;0.55;;;21.00;73.60;;;;;;5071472;28;20020;-75
2022/08/15 03:26:28;;;;;;;0.17;0.17;;;21.00;73.50;;;;;;5073570;28;20387;-75
2022/08/15 03:28:55;;;;;;;0.30;0.30;;;21.10;73.50;;;;;;5074926;28;20028;-75
2022/08/15 03:31:21;;;;;;;0.68;0.68;;;21.10;73.30;;;;;;5073773;28;20047;-75
2022/08/15 03:33:47;;;;;;;0.20;0.20;;;21.20;73.30;;;;;;5075172;28;20484;-75
2022/08/15 03:36:17;;;;;;;0.35;0.15;;;21.10;73.50;;;;;;5073636;28;20365;-75
2022/08/15 03:38:44;;;;;;;0.30;0.30;;;21.10;73.50;;;;;;5074618;28;20058;-75
2022/08/15 03:41:13;;;;;;;1.40;1.30;;;21.10;74.00;;;;;;5074855;28;20025;-75
2022/08/15 03:43:40;;;;;;;0.52;0.52;;;21.00;74.50;;;;;;5073352;28;20112;-75
2022/08/15 03:46:09;;;;;;;1.27;0.90;;;20.80;75.10;;;;;;5089493;22;20025;-74
2022/08/15 03:48:45;;;;;;;0.60;0.20;;;20.90;75.30;;;;;;5071525;28;20040;-73
2022/08/15 03:51:12;;;;;;;3.30;0.95;;;21.00;76.10;;;;;;5073314;28;20032;-74
2022/08/15 03:53:44;;;;;;;0.10;0.10;;;20.80;75.90;;;;;;5056800;28;20024;-74
2022/08/15 03:56:13;;;;;;;0.82;0.82;;;20.70;77.00;;;;;;5073326;28;20060;-74
2022/08/15 03:58:39;;;;;;;0.30;0.30;;;20.60;77.80;;;;;;5074321;28;20036;-74
2022/08/15 04:01:09;;;;;;;0.63;0.63;;;20.40;78.60;;;;;;5074156;28;20028;-74
2022/08/15 04:03:35;;;;;;;1.45;0.73;;;20.50;78.60;;;;;;5056600;28;20032;-74
2022/08/15 04:06:06;;;;;;;0.77;0.68;;;20.60;78.50;;;;;;5074351;28;20058;-74
2022/08/15 04:08:33;;;;;;;0.10;0.10;;;20.40;79.20;;;;;;5056338;28;20025;-74
2022/08/15 04:11:01;;;;;;;2.63;1.50;;;20.30;80.20;;;;;;5074376;28;20302;-74
2022/08/15 04:13:27;;;;;;;0.80;0.65;;;20.30;80.60;;;;;;5074281;28;20021;-74
2022/08/15 04:15:56;;;;;;;0.00;0.00;;;20.30;81.00;;;;;;5072760;28;20021;-74
2022/08/15 04:18:22;;;;;;;0.10;0.10;;;20.20;81.60;;;;;;5072790;28;20035;-74
2022/08/15 04:20:48;;;;;;;0.20;0.20;;;20.30;81.60;;;;;;5072773;28;20042;-74
2022/08/15 04:23:14;;;;;;;0.20;0.20;;;20.40;81.40;;;;;;5074137;28;20091;-74
2022/08/15 04:25:42;;;;;;;0.10;0.10;;;20.40;82.40;;;;;;5072603;28;20028;-74
2022/08/15 04:28:10;;;;;;;0.20;0.20;;;20.50;82.50;;;;;;5056004;28;20028;-74
2022/08/15 04:30:40;;;;;;;0.10;0.10;;;20.50;82.40;;;;;;5073926;28;20020;-74
2022/08/15 04:33:08;;;;;;;0.00;0.00;;;20.50;83.10;;;;;;5073894;28;20099;-74
2022/08/15 04:35:34;;;;;;;0.00;0.00;;;20.50;83.10;;;;;;5073834;28;20043;-74
2022/08/15 04:38:00;;;;;;;17.15;1.52;;;20.80;82.80;;;;;;5073652;28;20115;-74
2022/08/15 04:40:28;;;;;;;0.05;0.05;;;20.60;83.30;;;;;;5072513;28;20059;-74
2022/08/15 04:42:54;;;;;;;0.10;0.10;;;20.60;83.80;;;;;;5073816;28;20100;-74
2022/08/15 04:45:22;;;;;;;0.00;0.00;;;20.70;84.30;;;;;;5072350;28;20028;-74
2022/08/15 04:47:49;;;;;;;0.20;0.20;;;20.80;83.90;;;;;;5073370;28;20488;-74
2022/08/15 04:50:15;;;;;;;5.15;0.80;;;20.70;84.00;;;;;;5073513;28;20021;-74
2022/08/15 04:52:46;;;;;;;0.00;0.00;;;20.80;84.20;;;;;;5073615;28;20031;-74
2022/08/15 04:55:13;;;;;;;0.10;0.10;;;20.70;85.00;;;;;;5073271;28;20032;-74
2022/08/15 04:57:40;;;;;;;0.00;0.00;;;20.60;85.60;;;;;;5071982;28;20029;-74
2022/08/15 05:00:10;;;;;;;0.10;0.10;;;20.60;86.60;;;;;;5072045;28;20027;-74
2022/08/15 05:02:36;;;;;;;0.10;0.10;;;20.60;86.90;;;;;;5071975;28;20492;-74
2022/08/15 05:05:05;;;;;;;0.10;0.10;;;20.70;87.30;;;;;;5071762;28;20120;-74
2022/08/15 05:07:31;;;;;;;0.57;0.57;;;20.70;87.80;;;;;;5073093;28;20042;-74
2022/08/15 05:09:59;;;;;;;0.00;0.00;;;20.60;88.30;;;;;;5073126;28;20099;-74
2022/08/15 05:12:26;;;;;;;0.52;0.52;;;20.60;89.40;;;;;;5078866;28;20043;-74
2022/08/15 05:14:52;;;;;;;0.85;0.50;;;20.60;90.10;;;;;;5072468;28;20028;-74
2022/08/15 05:17:18;;;;;;;0.20;0.20;;;20.60;90.40;;;;;;5072722;28;20029;-74
2022/08/15 05:19:43;;;;;;;0.20;0.20;;;20.70;90.60;;;;;;5080746;28;20023;-74
2022/08/15 05:22:09;;;;;;;0.10;0.10;;;20.80;90.60;;;;;;5093142;28;20059;-74
2022/08/15 05:24:36;;;;;;;0.00;0.00;;;20.60;91.40;;;;;;5093068;28;20024;-74
2022/08/15 05:27:04;;;;;;;0.30;0.30;;;20.40;92.40;;;;;;5092790;28;20479;-74
2022/08/15 05:29:31;;;;;;;0.05;0.05;;;20.50;92.50;;;;;;5071932;28;20029;-74
2022/08/15 05:31:58;;;;;;;0.25;0.25;;;20.40;93.20;;;;;;5071535;28;20415;-74
2022/08/15 05:34:23;;;;;;;0.00;0.00;;;20.50;93.70;;;;;;5071423;28;20028;-74
2022/08/15 05:36:49;;;;;;;0.20;0.20;;;20.60;93.60;;;;;;5071063;28;20029;-74
2022/08/15 05:39:27;;;;;;;0.00;0.00;;;20.60;93.50;;;;;;5072486;28;20028;-74
2022/08/15 05:42:18;;;;;;;0.00;0.00;;;20.70;93.60;;;;;;5072488;28;20043;-74
2022/08/15 05:44:44;;;;;;;0.25;0.25;;;20.80;93.10;;;;;;5076619;28;20027;-74
2022/08/15 05:47:31;;;;;;;0.10;0.10;;;20.80;92.90;;;;;;5090332;28;20037;-74
2022/08/15 05:50:03;;;;;;;0.10;0.10;;;20.80;93.30;;;;;;5091552;28;20027;-74
2022/08/15 05:52:31;;;;;;;0.03;0.03;;;20.80;93.60;;;;;;5092513;28;20031;-74
2022/08/15 05:55:35;;;;;;;0.10;0.10;;;20.70;93.70;;;;;;5092429;28;20501;-74
2022/08/15 05:58:10;;;;;;;0.10;0.10;;;20.80;93.90;;;;;;5091170;28;20112;-73
2022/08/15 06:00:38;;;;;;;0.63;0.40;;;20.70;94.50;;;;;;5091276;28;20021;-74
2022/08/15 06:03:10;;;;;;;0.05;0.05;;;20.70;94.50;;;;;;5092419;28;20031;-74
2022/08/15 06:05:41;;;;;;;0.00;0.00;;;20.80;94.40;;;;;;5091102;28;20099;-73
2022/08/15 06:08:17;;;;;;;0.68;0.68;;;20.80;94.30;;;;;;5091081;28;20035;-74
2022/08/15 06:10:49;;;;;;;0.00;0.00;;;20.90;94.30;;;;;;5092220;28;20024;-74
2022/08/15 06:13:32;;;;;;;0.10;0.10;;;20.80;94.20;;;;;;5090934;28;20028;-74
2022/08/15 06:16:16;;;;;;;0.00;0.00;;;21.10;94.00;;;;;;5090854;28;20024;-74
2022/08/15 06:18:44;;;;;;;0.10;0.10;;;21.10;93.50;;;;;;5088054;28;20035;-74
2022/08/15 06:21:38;;;;;;;0.68;0.68;;;21.10;93.20;;;;;;5070948;28;20100;-74
2022/08/15 06:24:27;;;;;;;0.10;0.10;;;21.20;92.70;;;;;;5071957;28;20101;-74
2022/08/15 06:26:52;;;;;;;2.67;0.60;;;21.30;92.50;;;;;;5070300;28;20017;-74
2022/08/15 06:29:40;;;;;;;0.10;0.10;;;21.20;92.20;;;;;;5071755;28;20100;-73
2022/08/15 06:32:31;;;;;;;0.10;0.10;;;21.20;92.60;;;;;;5068833;28;20017;-74
2022/08/15 06:35:17;;;;;;;1.52;0.82;;;21.10;92.90;;;;;;5058590;28;20046;-74
2022/08/15 06:37:58;;;;;;;0.10;0.10;;;21.00;92.00;;;;;;5055948;28;20123;-74
2022/08/15 06:40:43;;;;;;;2.20;0.57;;;20.90;91.70;;;;;;5076051;28;20341;-73
2022/08/15 06:43:13;;;;;;;3.53;1.02;;;20.80;91.20;;;;;;5090905;28;20383;-74
2022/08/15 06:45:43;;;;;;;0.15;0.15;;;20.90;90.90;;;;;;5073658;28;20023;-74
2022/08/15 06:48:13;;;;;;;0.00;0.00;;;20.90;90.30;;;;;;5090521;28;20491;-74
2022/08/15 06:50:48;;;;;;;0.63;0.25;;;21.00;90.10;;;;;;5072578;28;20025;-74
2022/08/15 06:53:31;;;;;;;0.08;0.08;;;21.10;89.20;;;;;;5071678;28;20020;-74
2022/08/15 06:56:16;;;;;;;0.20;0.20;;;21.10;89.10;;;;;;5071600;28;20032;-74
2022/08/15 06:58:52;;;;;;;0.20;0.20;;;21.10;88.90;;;;;;5070653;28;20032;-74
2022/08/15 07:01:27;;;;;;;0.20;0.20;;;21.00;89.70;;;;;;5074867;28;20017;-74
2022/08/15 07:04:13;;;;;;;0.00;0.00;;;21.10;89.60;;;;;;5075007;28;20031;-74
2022/08/15 07:06:45;;;;;;;0.00;0.00;;;21.30;89.80;;;;;;5083670;28;20024;-74
2022/08/15 07:09:33;;;;;;;0.00;0.00;;;21.60;88.40;;;;;;5074200;28;20021;-74
2022/08/15 07:12:07;;;;;;;0.30;0.30;;;21.70;88.60;;;;;;5068730;28;20099;-74
2022/08/15 07:14:46;;;;;;;7.90;0.55;;;21.70;87.70;;;;;;5079071;28;20031;-73
2022/08/15 07:17:35;;;;;;;0.13;0.13;;;21.40;87.90;;;;;;5094112;28;20357;-74
2022/08/15 07:20:01;;;;;;;1.35;0.52;;;21.30;88.90;;;;;;5081530;28;20048;-74
2022/08/15 07:22:28;;;;;;;0.30;0.30;;;21.10;90.00;;;;;;5073849;28;20024;-73
2022/08/15 07:24:55;;;;;;;0.10;0.10;;;21.10;90.10;;;;;;5075692;28;20298;-74
2022/08/15 07:27:28;;;;;;;0.08;0.08;;;21.10;90.40;;;;;;5082952;28;20107;-74
2022/08/15 07:30:00;;;;;;;0.38;0.38;;;21.30;90.40;;;;;;5084758;28;20027;-74
2022/08/15 07:32:44;;;;;;;0.08;0.08;;;21.20;90.40;;;;;;5093856;28;20489;-74
2022/08/15 07:35:12;;;;;;;0.47;0.47;;;21.30;90.50;;;;;;5058764;28;20024;-74
2022/08/15 07:37:47;;;;;;;0.20;0.20;;;21.20;90.70;;;;;;5073375;28;20526;-74
2022/08/15 07:40:12;;;;;;;0.00;0.00;;;21.10;90.70;;;;;;5061958;28;20020;-74
2022/08/15 07:42:42;;;;;;;0.50;0.50;;;21.00;91.10;;;;;;5084324;28;20016;-74
2022/08/15 07:45:25;;;;;;;0.00;0.00;;;21.10;90.90;;;;;;5074382;28;20481;-73
2022/08/15 07:47:59;;;;;;;0.10;0.10;;;21.10;91.60;;;;;;5074632;28;20095;-74
2022/08/15 07:50:31;;;;;;;0.13;0.13;;;21.20;91.20;;;;;;5074806;28;20024;-74
2022/08/15 07:53:07;;;;;;;1.25;1.15;;;21.20;91.00;;;;;;5074671;28;20108;-74
2022/08/15 07:55:33;;;;;;;1.08;0.52;;;21.10;91.50;;;;;;5074647;28;20387;-74
2022/08/15 07:58:02;;;;;;;0.10;0.10;;;21.00;91.80;;;;;;5074562;28;20035;-73
2022/08/15 08:00:29;;;;;;;0.08;0.08;;;21.10;91.80;;;;;;5090202;28;20017;-74
2022/08/15 08:03:22;;;;;;;0.20;0.20;;;21.00;91.90;;;;;;5094662;28;20479;-74
2022/08/15 08:06:25;;;;;;;0.30;0.30;;;21.20;92.00;;;;;;5094351;28;20034;-74
2022/08/15 08:09:20;;;;;;;0.08;0.08;;;21.10;92.00;;;;;;5072525;28;20103;-74
2022/08/15 08:11:54;;;;;;;0.10;0.10;;;21.10;92.30;;;;;;5073400;28;20046;-74
2022/08/15 08:14:41;;;;;;;0.10;0.10;;;21.40;91.80;;;;;;5074134;28;20029;-74
2022/08/15 08:17:36;;;;;;;0.20;0.20;;;21.60;90.90;;;;;;5072588;28;20518;-74
2022/08/15 08:20:23;;;;;;;0.10;0.10;;;21.60;90.60;;;;;;5074109;28;20051;-74
2022/08/15 08:23:34;;;;;;;0.10;0.10;;;21.60;90.90;;;;;;5074153;28;20492;-74
2022/08/15 08:26:30;;;;;;;0.10;0.10;;;21.60;90.80;;;;;;5011826;28;20386;-74
2022/08/15 08:29:16;;;;;;;0.10;0.10;;;21.60;91.10;;;;;;5067935;28;20040;-74
2022/08/15 08:32:01;;;;;;;0.50;0.40;;;21.70;91.10;;;;;;5072660;28;20075;-74
2022/08/15 08:34:42;;;;;;;0.00;0.00;;;21.50;90.20;;;;;;5087074;28;20024;-74
2022/08/15 08:37:22;;;;;;;0.00;0.00;;;21.60;90.70;;;;;;5092277;28;20040;-74
2022/08/15 08:43:15;;;;;;;0.28;0.28;;;21.80;90.30;;;;;;5072249;28;20043;-74
2022/08/15 08:46:03;;;;;;;0.05;0.05;;;21.80;89.50;;;;;;5063169;28;20031;-74
2022/08/15 08:49:04;;;;;;;0.30;0.30;;;22.00;88.60;;;;;;5071395;28;20032;-74
2022/08/15 08:52:04;;;;;;;0.00;0.00;;;22.00;87.70;;;;;;4975527;28;20050;-74
2022/08/15 08:54:36;;;;;;;0.00;0.00;;;21.80;87.60;;;;;;5055569;28;20031;-74
2022/08/15 08:57:07;;;;;;;0.00;0.00;;;21.80;88.20;;;;;;5071826;28;20056;-74
2022/08/15 09:00:04;;;;;;;0.00;0.00;;;22.00;87.80;;;;;;5072029;28;20096;-73
2022/08/15 09:02:36;;;;;;;0.05;0.05;;;22.00;87.70;;;;;;5071976;28;20056;-74
2022/08/15 09:05:14;;;;;;;0.05;0.05;;;22.10;87.20;;;;;;5073100;28;20032;-74
2022/08/15 09:07:48;;;;;;;0.00;0.00;;;22.00;87.30;;;;;;5071807;28;20024;-74
2022/08/15 09:10:24;;;;;;;0.08;0.08;;;21.90;88.20;;;;;;5073024;28;20020;-74
2022/08/15 09:15:40;;;;;;;0.10;0.10;;;21.70;91.50;;;;;;5072892;28;20028;-73
2022/08/15 09:18:10;;;;;;;0.28;0.17;;;21.80;91.20;;;;;;5072870;28;20029;-74
2022/08/15 09:20:39;;;;;;;0.10;0.10;;;21.90;91.40;;;;;;5071350;28;20021;-74
2022/08/15 09:23:15;;;;;;;0.10;0.10;;;21.90;91.30;;;;;;5071460;28;20020;-74
2022/08/15 09:25:50;;;;;;;0.10;0.10;;;21.80;91.80;;;;;;5072599;28;20502;-74
2022/08/15 09:28:41;;;;;;;0.00;0.00;;;21.80;92.60;;;;;;5072495;28;20029;-74
2022/08/15 09:31:16;;;;;;;1.63;0.47;;;21.80;93.20;;;;;;5071357;28;20020;-74
2022/08/15 09:34:13;;;;;;;0.00;0.00;;;21.70;93.30;;;;;;5082486;28;20386;-74
2022/08/15 09:37:16;;;;;;;0.08;0.08;;;21.70;93.80;;;;;;5076585;28;20029;-74
2022/08/15 09:40:17;;;;;;;0.10;0.10;;;21.70;93.80;;;;;;5078148;28;20063;-74
2022/08/15 09:43:27;;;;;;;0.08;0.08;;;21.70;94.40;;;;;;5091563;28;20028;-74
2022/08/15 09:46:05;;;;;;;0.30;0.20;;;21.60;95.50;;;;;;5091168;28;20024;-74
2022/08/15 09:48:56;;;;;;;0.00;0.00;;;21.60;96.10;;;;;;5083079;28;20036;-74
2022/08/15 09:51:34;;;;;;;0.83;0.83;;;21.70;97.00;;;;;;5072218;28;20107;-73
2022/08/15 09:54:06;;;;;;;0.10;0.10;;;21.50;96.70;;;;;;5072343;28;20036;-74
2022/08/15 09:56:36;;;;;;;0.13;0.13;;;21.50;96.40;;;;;;5072102;28;20032;-74
2022/08/15 09:59:02;;;;;;;0.10;0.10;;;21.40;97.00;;;;;;5072227;28;20055;-74
2022/08/15 10:01:30;;;;;;;0.10;0.10;;;21.20;98.70;;;;;;5070595;28;20016;-74
2022/08/15 10:04:02;;;;;;;1.13;0.35;;;21.20;99.90;;;;;;5070872;28;20114;-73
2022/08/15 10:06:47;;;;;;;0.52;0.52;;;21.20;99.90;;;;;;5071831;28;20021;-74
2022/08/15 10:09:29;;;;;;;5.97;1.05;;;21.20;99.90;;;;;;5070861;28;20095;-74
2022/08/15 10:11:58;;;;;;;0.22;0.22;;;21.00;99.90;;;;;;5054099;28;20389;-74
2022/08/15 10:14:42;;;;;;;0.85;0.45;;;21.00;99.90;;;;;;5070715;28;20017;-74
2022/08/15 10:17:27;;;;;;;0.17;0.17;;;21.00;99.90;;;;;;5071544;28;20063;-74
2022/08/15 10:19:54;;;;;;;0.00;0.00;;;21.10;99.90;;;;;;5053782;28;20035;-74
2022/08/15 10:22:24;;;;;;;0.20;0.20;;;21.20;99.90;;;;;;5053057;28;20013;-74
2022/08/15 10:25:15;;;;;;;0.80;0.50;;;21.20;99.90;;;;;;5071693;28;20056;-74
2022/08/15 10:27:55;;;;;;;1.35;1.08;;;21.10;99.90;;;;;;5070469;28;20457;-74
2022/08/15 10:30:25;;;;;;;0.00;0.00;;;21.30;99.90;;;;;;5053847;28;20080;-74
2022/08/15 10:32:52;;;;;;;0.00;0.00;;;21.30;99.90;;;;;;5054319;28;20059;-74
2022/08/15 10:35:41;;;;;;;0.00;0.00;;;21.20;99.90;;;;;;5060060;28;20029;-74
2022/08/15 10:38:11;;;;;;;0.10;0.10;;;21.40;99.80;;;;;;5076976;28;20059;-74
2022/08/15 10:40:52;;;;;;;0.10;0.10;;;21.40;98.70;;;;;;5078393;28;20426;-74
2022/08/15 10:43:29;;;;;;;0.17;0.17;;;21.40;98.00;;;;;;5077045;28;20086;-74
2022/08/15 10:46:18;;;;;;;0.68;0.68;;;21.50;98.20;;;;;;5060079;28;20271;-74
2022/08/15 10:48:44;;;;;;;0.15;0.15;;;21.50;97.20;;;;;;5076949;28;20055;-74
2022/08/15 10:51:38;;;;;;;0.00;0.00;;;21.40;97.60;;;;;;5077236;28;20480;-74
2022/08/15 10:54:28;;;;;;;0.10;0.10;;;21.70;96.60;;;;;;5078297;28;20529;-73
2022/08/15 10:56:55;;;;;;;0.35;0.35;;;21.60;95.10;;;;;;5077798;28;20021;-74
2022/08/15 10:59:39;;;;;;;0.00;0.00;;;21.70;94.60;;;;;;5076865;28;20116;-74
2022/08/15 11:02:45;;;;;;;0.13;0.13;;;21.80;94.60;;;;;;5076947;28;20107;-74
2022/08/15 11:05:15;;;;;;;0.40;0.20;;;21.90;94.00;;;;;;5046881;28;20025;-74
2022/08/15 11:07:49;;;;;;;0.38;0.38;;;22.00;93.40;;;;;;5076809;28;20047;-74
2022/08/15 11:10:19;;;;;;;0.10;0.10;;;22.00;93.00;;;;;;5088474;28;20070;-74
2022/08/15 11:12:48;;;;;;;0.30;0.30;;;22.00;92.60;;;;;;5063835;28;20028;-74
2022/08/15 11:15:22;;;;;;;0.80;0.80;;;21.90;92.80;;;;;;5097095;28;20268;-74
2022/08/15 11:17:57;;;;;;;0.10;0.10;;;21.70;93.60;;;;;;5087637;28;20063;-74
2022/08/15 11:20:27;;;;;;;0.03;0.03;;;21.80;93.60;;;;;;5077150;28;20020;-74
2022/08/15 11:23:00;;;;;;;0.43;0.40;;;22.00;93.50;;;;;;5077831;28;20074;-74
2022/08/15 11:25:39;;;;;;;0.32;0.32;;;22.10;92.90;;;;;;5079274;28;20046;-74
2022/08/15 11:28:12;;;;;;;0.00;0.00;;;22.00;93.20;;;;;;5098006;28;20103;-74
2022/08/15 11:30:41;;;;;;;0.15;0.15;;;22.00;93.20;;;;;;5076691;28;20024;-74
2022/08/15 11:33:30;;;;;;;0.20;0.20;;;22.20;93.00;;;;;;5076356;28;20479;-74
2022/08/15 11:36:24;;;;;;;0.20;0.20;;;22.20;91.40;;;;;;5059849;28;20073;-74
2022/08/15 11:39:11;;;;;;;0.10;0.10;;;22.50;90.40;;;;;;5073730;28;20043;-74
2022/08/15 11:41:41;;;;;;;0.00;0.00;;;23.10;89.30;;;;;;5078014;28;20104;-74
2022/08/15 11:44:10;;;;;;;0.10;0.10;;;23.90;85.10;;;;;;5077855;28;20021;-74
2022/08/15 11:46:37;;;;;;;6.65;1.15;;;24.30;83.10;;;;;;5071925;28;20025;-75
2022/08/15 11:49:14;;;;;;;2.25;0.47;;;24.70;80.30;;;;;;5072995;28;20066;-74
2022/08/15 11:51:45;;;;;;;0.25;0.25;;;24.60;79.10;;;;;;5074578;28;20035;-74
2022/08/15 11:54:13;;;;;;;0.00;0.00;;;24.40;81.50;;;;;;5073265;28;20032;-74
2022/08/15 11:57:05;;;;;;;0.00;0.00;;;24.30;82.40;;;;;;5072391;28;20177;-74
2022/08/15 11:59:52;;;;;;;0.03;0.03;;;24.00;80.40;;;;;;5056245;28;20107;-74
2022/08/15 12:02:21;;;;;;;0.52;0.52;;;24.00;83.30;;;;;;5054663;28;20116;-74
2022/08/15 12:04:48;;;;;;;9.13;8.10;;;24.20;84.50;;;;;;5073007;28;20104;-73
2022/08/15 12:07:28;;;;;;;2.50;0.52;;;24.10;84.50;;;;;;5072848;28;20388;-74
2022/08/15 12:10:00;;;;;;;0.00;0.00;;;24.20;82.10;;;;;;5074076;28;20101;-74
2022/08/15 12:12:37;;;;;;;0.25;0.25;;;24.60;80.10;;;;;;5073055;28;20032;-74
2022/08/15 12:15:15;;;;;;;0.00;0.00;;;24.40;77.90;;;;;;5056069;28;20400;-74
2022/08/15 12:17:59;;;;;;;0.00;0.00;;;24.60;79.60;;;;;;5084302;28;20035;-74
2022/08/15 12:20:43;;;;;;;0.00;0.00;;;24.70;78.50;;;;;;5074556;28;20032;-74
2022/08/15 12:23:29;;;;;;;0.10;0.10;;;25.00;77.70;;;;;;5072387;28;20047;-74
2022/08/15 12:25:59;;;;;;;0.00;0.00;;;24.90;75.80;;;;;;5068873;28;20017;-74
2022/08/15 12:28:27;;;;;;;0.00;0.00;;;25.00;75.60;;;;;;5053975;28;20028;-74
2022/08/15 12:30:56;;;;;;;1.02;0.22;;;25.30;72.90;;;;;;5069218;28;20472;-74
2022/08/15 12:33:23;;;;;;;0.00;0.00;;;25.50;70.60;;;;;;5073849;28;20103;-74
2022/08/15 12:35:51;;;;;;;0.10;0.10;;;25.60;69.00;;;;;;5072125;28;20024;-74
2022/08/15 12:38:17;;;;;;;0.00;0.00;;;25.80;69.40;;;;;;5054162;28;20116;-74
2022/08/15 12:40:43;;;;;;;0.00;0.00;;;25.80;68.30;;;;;;5072489;28;20048;-74
2022/08/15 12:43:09;;;;;;;0.63;0.52;;;25.60;67.10;;;;;;5071786;28;20052;-74
2022/08/15 12:45:37;;;;;;;0.00;0.00;;;26.10;66.00;;;;;;5073533;28;20082;-74
2022/08/15 12:48:09;;;;;;;0.13;0.13;;;25.90;65.40;;;;;;5073261;28;20541;-74
2022/08/15 12:50:35;;;;;;;0.00;0.00;;;25.90;64.60;;;;;;5072100;28;20088;-74
2022/08/15 12:53:01;;;;;;;0.00;0.00;;;25.90;64.70;;;;;;5071767;28;20032;-74
2022/08/15 12:55:28;;;;;;;0.40;0.28;;;25.90;64.20;;;;;;5072729;28;20025;-73
2022/08/15 12:57:54;;;;;;;0.10;0.10;;;26.00;64.10;;;;;;5072180;28;20396;-76
2022/08/15 13:00:20;;;;;;;0.40;0.40;;;25.80;64.20;;;;;;5074003;28;20070;-76
2022/08/15 13:02:45;;;;;;;0.00;0.00;;;25.80;63.30;;;;;;5073299;28;20027;-73
2022/08/15 13:05:22;;;;;;;0.00;0.00;;;25.70;64.20;;;;;;5073095;28;20096;-73
2022/08/15 13:07:48;;;;;;;0.60;0.60;;;25.80;63.50;;;;;;5071965;28;20105;-73
2022/08/15 13:10:17;;;;;;;8.15;1.83;;;25.90;63.00;;;;;;5073075;28;20056;-73
2022/08/15 13:12:43;;;;;;;0.00;0.00;;;25.80;62.20;;;;;;5071529;28;20024;-73
2022/08/15 13:15:09;;;;;;;0.47;0.30;;;25.80;62.40;;;;;;5072912;28;20040;-73
2022/08/15 13:17:35;;;;;;;0.13;0.08;;;25.80;61.00;;;;;;5055069;28;20070;-73
2022/08/15 13:25:43;;;;;;;0.00;0.00;;;25.60;61.30;;;;;;5072774;28;20048;-73
2022/08/15 13:28:08;;;;;;;0.08;0.08;;;25.60;61.30;;;;;;5071383;28;20056;-73
2022/08/15 13:30:35;;;;;;;0.10;0.10;;;25.80;61.00;;;;;;5072782;28;20024;-73
2022/08/15 13:33:01;;;;;;;0.00;0.00;;;25.80;61.30;;;;;;5072688;28;20042;-73
2022/08/15 13:35:28;;;;;;;0.10;0.10;;;25.80;60.60;;;;;;5072558;28;20033;-73